sensor_id;sensor_type;location;lat;lon;timestamp;P1;durP1;ratioP1;P2;durP2;ratioP2
5125;SDS011;63008;53.112;8.896;2023-02-23T00:01:26;41.87;;;23.40;;
5125;SDS011;63008;53.112;8.896;2023-02-23T00:03:28;36.37;;;22.27;;
5125;SDS011;63008;53.112;8.896;2023-02-23T00:05:30;42.77;;;23.73;;
5125;SDS011;63008;53.112;8.896;2023-02-23T00:07:37;37.10;;;22.17;;
5125;SDS011;63008;53.112;8.896;2023-02-23T00:09:38;36.50;;;21.17;;
5125;SDS011;63008;53.112;8.896;2023-02-23T00:11:39;34.30;;;22.10;;
5125;SDS011;63008;53.112;8.896;2023-02-23T00:13:41;32.90;;;20.30;;
5125;SDS011;63008;53.112;8.896;2023-02-23T00:15:45;36.50;;;20.90;;
5125;SDS011;63008;53.112;8.896;2023-02-23T00:17:46;34.83;;;21.33;;
5125;SDS011;63008;53.112;8.896;2023-02-23T00:19:47;42.40;;;23.57;;
5125;SDS011;63008;53.112;8.896;2023-02-23T00:21:48;37.40;;;21.20;;
5125;SDS011;63008;53.112;8.896;2023-02-23T00:23:52;35.70;;;21.77;;
5125;SDS011;63008;53.112;8.896;2023-02-23T00:25:55;40.63;;;22.80;;
5125;SDS011;63008;53.112;8.896;2023-02-23T00:27:58;37.60;;;21.70;;
5125;SDS011;63008;53.112;8.896;2023-02-23T00:29:59;32.60;;;21.33;;
5125;SDS011;63008;53.112;8.896;2023-02-23T00:32:01;37.50;;;21.87;;
5125;SDS011;63008;53.112;8.896;2023-02-23T00:34:02;38.33;;;21.67;;
5125;SDS011;63008;53.112;8.896;2023-02-23T00:36:11;42.37;;;23.90;;
5125;SDS011;63008;53.112;8.896;2023-02-23T00:38:13;37.07;;;22.77;;
5125;SDS011;63008;53.112;8.896;2023-02-23T00:40:15;36.87;;;21.10;;
5125;SDS011;63008;53.112;8.896;2023-02-23T00:42:17;45.13;;;26.30;;
5125;SDS011;63008;53.112;8.896;2023-02-23T00:44:18;37.13;;;23.20;;
5125;SDS011;63008;53.112;8.896;2023-02-23T00:46:21;34.83;;;22.40;;
5125;SDS011;63008;53.112;8.896;2023-02-23T00:48:23;37.73;;;20.30;;
5125;SDS011;63008;53.112;8.896;2023-02-23T00:50:24;37.87;;;20.50;;
5125;SDS011;63008;53.112;8.896;2023-02-23T00:52:26;36.70;;;22.07;;
5125;SDS011;63008;53.112;8.896;2023-02-23T00:54:28;39.70;;;23.00;;
5125;SDS011;63008;53.112;8.896;2023-02-23T00:56:32;38.47;;;24.00;;
5125;SDS011;63008;53.112;8.896;2023-02-23T00:58:34;42.10;;;22.93;;
5125;SDS011;63008;53.112;8.896;2023-02-23T01:00:38;37.77;;;21.90;;
5125;SDS011;63008;53.112;8.896;2023-02-23T01:02:41;43.80;;;26.50;;
5125;SDS011;63008;53.112;8.896;2023-02-23T01:04:42;41.10;;;24.20;;
5125;SDS011;63008;53.112;8.896;2023-02-23T01:06:43;41.87;;;24.67;;
5125;SDS011;63008;53.112;8.896;2023-02-23T01:08:46;43.83;;;24.90;;
5125;SDS011;63008;53.112;8.896;2023-02-23T01:10:51;48.93;;;27.03;;
5125;SDS011;63008;53.112;8.896;2023-02-23T01:12:53;47.00;;;27.80;;
5125;SDS011;63008;53.112;8.896;2023-02-23T01:14:54;52.40;;;29.20;;
5125;SDS011;63008;53.112;8.896;2023-02-23T01:16:55;47.43;;;27.90;;
5125;SDS011;63008;53.112;8.896;2023-02-23T01:18:57;60.80;;;31.03;;
5125;SDS011;63008;53.112;8.896;2023-02-23T01:20:59;59.30;;;32.73;;
5125;SDS011;63008;53.112;8.896;2023-02-23T01:23:01;58.67;;;33.17;;
5125;SDS011;63008;53.112;8.896;2023-02-23T01:25:03;51.60;;;31.43;;
5125;SDS011;63008;53.112;8.896;2023-02-23T01:27:04;56.83;;;32.63;;
5125;SDS011;63008;53.112;8.896;2023-02-23T01:29:07;57.03;;;31.67;;
5125;SDS011;63008;53.112;8.896;2023-02-23T01:31:09;62.60;;;33.53;;
5125;SDS011;63008;53.112;8.896;2023-02-23T01:33:10;71.87;;;36.20;;
5125;SDS011;63008;53.112;8.896;2023-02-23T01:35:13;61.77;;;32.17;;
5125;SDS011;63008;53.112;8.896;2023-02-23T01:37:14;66.00;;;32.37;;
5125;SDS011;63008;53.112;8.896;2023-02-23T01:39:16;61.23;;;34.00;;
5125;SDS011;63008;53.112;8.896;2023-02-23T01:41:19;68.00;;;34.90;;
5125;SDS011;63008;53.112;8.896;2023-02-23T01:43:21;65.87;;;35.30;;
5125;SDS011;63008;53.112;8.896;2023-02-23T01:47:31;66.90;;;36.87;;
5125;SDS011;63008;53.112;8.896;2023-02-23T01:49:32;61.27;;;34.30;;
5125;SDS011;63008;53.112;8.896;2023-02-23T01:51:36;69.13;;;34.80;;
5125;SDS011;63008;53.112;8.896;2023-02-23T01:53:41;64.80;;;35.57;;
5125;SDS011;63008;53.112;8.896;2023-02-23T01:55:48;61.37;;;33.67;;
5125;SDS011;63008;53.112;8.896;2023-02-23T01:57:56;67.10;;;35.13;;
5125;SDS011;63008;53.112;8.896;2023-02-23T02:00:03;70.63;;;35.40;;
5125;SDS011;63008;53.112;8.896;2023-02-23T02:02:12;66.77;;;34.60;;
5125;SDS011;63008;53.112;8.896;2023-02-23T02:04:15;64.60;;;34.10;;
5125;SDS011;63008;53.112;8.896;2023-02-23T02:06:19;69.83;;;36.90;;
5125;SDS011;63008;53.112;8.896;2023-02-23T02:08:22;70.00;;;35.27;;
5125;SDS011;63008;53.112;8.896;2023-02-23T02:10:25;64.13;;;32.53;;
5125;SDS011;63008;53.112;8.896;2023-02-23T02:12:40;62.13;;;32.83;;
5125;SDS011;63008;53.112;8.896;2023-02-23T02:14:44;70.17;;;35.17;;
5125;SDS011;63008;53.112;8.896;2023-02-23T02:16:54;63.33;;;32.60;;
5125;SDS011;63008;53.112;8.896;2023-02-23T02:19:12;60.63;;;31.97;;
5125;SDS011;63008;53.112;8.896;2023-02-23T02:21:47;74.17;;;33.60;;
5125;SDS011;63008;53.112;8.896;2023-02-23T02:26:34;61.63;;;31.63;;
5125;SDS011;63008;53.112;8.896;2023-02-23T02:28:53;69.07;;;34.40;;
5125;SDS011;63008;53.112;8.896;2023-02-23T02:38:18;62.40;;;32.20;;
5125;SDS011;63008;53.112;8.896;2023-02-23T02:40:46;69.93;;;34.90;;
5125;SDS011;63008;53.112;8.896;2023-02-23T02:42:59;66.40;;;35.37;;
5125;SDS011;63008;53.112;8.896;2023-02-23T02:45:12;70.53;;;33.10;;
5125;SDS011;63008;53.112;8.896;2023-02-23T02:47:24;68.40;;;34.73;;
5125;SDS011;63008;53.112;8.896;2023-02-23T02:49:40;67.70;;;33.47;;
5125;SDS011;63008;53.112;8.896;2023-02-23T02:54:23;67.40;;;36.30;;
5125;SDS011;63008;53.112;8.896;2023-02-23T02:56:29;72.60;;;35.83;;
5125;SDS011;63008;53.112;8.896;2023-02-23T02:58:32;72.23;;;36.17;;
5125;SDS011;63008;53.112;8.896;2023-02-23T03:00:39;68.07;;;34.13;;
5125;SDS011;63008;53.112;8.896;2023-02-23T03:03:00;65.97;;;33.70;;
5125;SDS011;63008;53.112;8.896;2023-02-23T03:05:21;70.07;;;36.13;;
5125;SDS011;63008;53.112;8.896;2023-02-23T03:10:31;75.13;;;36.53;;
5125;SDS011;63008;53.112;8.896;2023-02-23T03:15:53;67.10;;;35.23;;
5125;SDS011;63008;53.112;8.896;2023-02-23T03:21:28;72.10;;;35.90;;
5125;SDS011;63008;53.112;8.896;2023-02-23T03:23:57;69.93;;;35.30;;
5125;SDS011;63008;53.112;8.896;2023-02-23T03:26:29;68.87;;;34.00;;
5125;SDS011;63008;53.112;8.896;2023-02-23T03:29:00;84.27;;;36.70;;
5125;SDS011;63008;53.112;8.896;2023-02-23T03:31:26;71.10;;;35.73;;
5125;SDS011;63008;53.112;8.896;2023-02-23T03:34:09;79.10;;;33.93;;
5125;SDS011;63008;53.112;8.896;2023-02-23T03:36:35;75.33;;;35.10;;
5125;SDS011;63008;53.112;8.896;2023-02-23T03:39:02;77.83;;;35.43;;
5125;SDS011;63008;53.112;8.896;2023-02-23T03:41:29;80.57;;;36.97;;
5125;SDS011;63008;53.112;8.896;2023-02-23T03:43:54;82.87;;;37.77;;
5125;SDS011;63008;53.112;8.896;2023-02-23T03:46:17;83.80;;;35.67;;
5125;SDS011;63008;53.112;8.896;2023-02-23T03:48:38;71.60;;;35.60;;
5125;SDS011;63008;53.112;8.896;2023-02-23T03:51:01;83.13;;;37.57;;
5125;SDS011;63008;53.112;8.896;2023-02-23T03:53:31;85.33;;;36.80;;
5125;SDS011;63008;53.112;8.896;2023-02-23T03:55:58;84.40;;;37.10;;
5125;SDS011;63008;53.112;8.896;2023-02-23T03:58:23;92.73;;;37.10;;
5125;SDS011;63008;53.112;8.896;2023-02-23T04:00:50;71.63;;;35.00;;
5125;SDS011;63008;53.112;8.896;2023-02-23T04:03:11;81.43;;;36.93;;
5125;SDS011;63008;53.112;8.896;2023-02-23T04:05:36;86.60;;;36.97;;
5125;SDS011;63008;53.112;8.896;2023-02-23T04:07:57;79.90;;;37.03;;
5125;SDS011;63008;53.112;8.896;2023-02-23T04:10:23;81.47;;;36.90;;
5125;SDS011;63008;53.112;8.896;2023-02-23T04:12:55;86.93;;;35.10;;
5125;SDS011;63008;53.112;8.896;2023-02-23T04:15:23;78.40;;;36.90;;
5125;SDS011;63008;53.112;8.896;2023-02-23T04:17:29;75.50;;;35.60;;
5125;SDS011;63008;53.112;8.896;2023-02-23T04:19:31;81.73;;;37.67;;
5125;SDS011;63008;53.112;8.896;2023-02-23T04:21:32;80.20;;;37.20;;
5125;SDS011;63008;53.112;8.896;2023-02-23T04:23:33;82.33;;;37.40;;
5125;SDS011;63008;53.112;8.896;2023-02-23T04:25:35;84.20;;;38.93;;
5125;SDS011;63008;53.112;8.896;2023-02-23T04:27:36;90.70;;;40.57;;
5125;SDS011;63008;53.112;8.896;2023-02-23T04:29:37;82.33;;;37.70;;
5125;SDS011;63008;53.112;8.896;2023-02-23T04:31:38;97.30;;;39.97;;
5125;SDS011;63008;53.112;8.896;2023-02-23T04:33:41;91.13;;;39.03;;
5125;SDS011;63008;53.112;8.896;2023-02-23T04:35:42;81.33;;;37.90;;
5125;SDS011;63008;53.112;8.896;2023-02-23T04:37:43;84.87;;;39.43;;
5125;SDS011;63008;53.112;8.896;2023-02-23T04:39:44;88.43;;;39.10;;
5125;SDS011;63008;53.112;8.896;2023-02-23T04:41:49;78.00;;;36.47;;
5125;SDS011;63008;53.112;8.896;2023-02-23T04:43:50;82.10;;;38.53;;
5125;SDS011;63008;53.112;8.896;2023-02-23T04:45:51;83.70;;;38.00;;
5125;SDS011;63008;53.112;8.896;2023-02-23T04:47:52;85.47;;;39.97;;
5125;SDS011;63008;53.112;8.896;2023-02-23T04:49:53;93.20;;;38.37;;
5125;SDS011;63008;53.112;8.896;2023-02-23T04:51:54;88.13;;;37.90;;
5125;SDS011;63008;53.112;8.896;2023-02-23T04:53:55;87.30;;;39.83;;
5125;SDS011;63008;53.112;8.896;2023-02-23T04:55:56;81.63;;;39.80;;
5125;SDS011;63008;53.112;8.896;2023-02-23T04:57:57;90.43;;;39.37;;
5125;SDS011;63008;53.112;8.896;2023-02-23T04:59:59;94.63;;;40.33;;
5125;SDS011;63008;53.112;8.896;2023-02-23T05:02:01;106.73;;;41.00;;
5125;SDS011;63008;53.112;8.896;2023-02-23T05:04:03;102.50;;;43.53;;
5125;SDS011;63008;53.112;8.896;2023-02-23T05:06:04;97.70;;;40.13;;
5125;SDS011;63008;53.112;8.896;2023-02-23T05:08:05;102.13;;;43.17;;
5125;SDS011;63008;53.112;8.896;2023-02-23T05:10:06;99.23;;;43.00;;
5125;SDS011;63008;53.112;8.896;2023-02-23T05:12:08;110.00;;;43.93;;
5125;SDS011;63008;53.112;8.896;2023-02-23T05:14:09;102.83;;;43.37;;
5125;SDS011;63008;53.112;8.896;2023-02-23T05:16:12;90.70;;;40.13;;
5125;SDS011;63008;53.112;8.896;2023-02-23T05:18:13;100.23;;;43.40;;
5125;SDS011;63008;53.112;8.896;2023-02-23T05:20:14;101.70;;;40.30;;
5125;SDS011;63008;53.112;8.896;2023-02-23T05:22:15;110.50;;;41.40;;
5125;SDS011;63008;53.112;8.896;2023-02-23T05:24:17;113.50;;;41.77;;
5125;SDS011;63008;53.112;8.896;2023-02-23T05:26:18;97.20;;;42.40;;
5125;SDS011;63008;53.112;8.896;2023-02-23T05:28:19;94.93;;;39.57;;
5125;SDS011;63008;53.112;8.896;2023-02-23T05:30:21;114.33;;;41.63;;
5125;SDS011;63008;53.112;8.896;2023-02-23T05:32:22;98.70;;;40.80;;
5125;SDS011;63008;53.112;8.896;2023-02-23T05:34:23;98.53;;;39.60;;
5125;SDS011;63008;53.112;8.896;2023-02-23T05:36:24;110.90;;;41.53;;
5125;SDS011;63008;53.112;8.896;2023-02-23T05:38:25;111.50;;;40.77;;
5125;SDS011;63008;53.112;8.896;2023-02-23T05:40:27;103.47;;;41.73;;
5125;SDS011;63008;53.112;8.896;2023-02-23T05:42:28;95.70;;;39.07;;
5125;SDS011;63008;53.112;8.896;2023-02-23T05:44:28;105.40;;;41.80;;
5125;SDS011;63008;53.112;8.896;2023-02-23T05:46:30;105.23;;;39.37;;
5125;SDS011;63008;53.112;8.896;2023-02-23T05:48:31;101.43;;;42.50;;
5125;SDS011;63008;53.112;8.896;2023-02-23T05:50:32;104.37;;;41.97;;
5125;SDS011;63008;53.112;8.896;2023-02-23T05:52:36;99.60;;;42.23;;
5125;SDS011;63008;53.112;8.896;2023-02-23T05:54:39;113.30;;;41.97;;
5125;SDS011;63008;53.112;8.896;2023-02-23T05:56:41;107.70;;;38.27;;
5125;SDS011;63008;53.112;8.896;2023-02-23T05:58:43;108.03;;;40.40;;
5125;SDS011;63008;53.112;8.896;2023-02-23T06:00:44;117.43;;;44.10;;
5125;SDS011;63008;53.112;8.896;2023-02-23T06:02:45;100.40;;;40.90;;
5125;SDS011;63008;53.112;8.896;2023-02-23T06:04:46;115.53;;;44.53;;
5125;SDS011;63008;53.112;8.896;2023-02-23T06:06:47;120.50;;;45.20;;
5125;SDS011;63008;53.112;8.896;2023-02-23T06:08:48;105.13;;;43.73;;
5125;SDS011;63008;53.112;8.896;2023-02-23T06:10:49;110.10;;;43.33;;
5125;SDS011;63008;53.112;8.896;2023-02-23T06:12:50;104.70;;;44.30;;
5125;SDS011;63008;53.112;8.896;2023-02-23T06:14:51;118.90;;;48.20;;
5125;SDS011;63008;53.112;8.896;2023-02-23T06:16:52;123.63;;;47.90;;
5125;SDS011;63008;53.112;8.896;2023-02-23T06:18:53;112.10;;;45.07;;
5125;SDS011;63008;53.112;8.896;2023-02-23T06:20:54;113.10;;;44.90;;
5125;SDS011;63008;53.112;8.896;2023-02-23T06:22:58;113.27;;;42.43;;
5125;SDS011;63008;53.112;8.896;2023-02-23T06:24:59;112.83;;;45.53;;
5125;SDS011;63008;53.112;8.896;2023-02-23T06:27:05;117.97;;;42.97;;
5125;SDS011;63008;53.112;8.896;2023-02-23T06:29:06;121.17;;;43.70;;
5125;SDS011;63008;53.112;8.896;2023-02-23T06:31:07;103.97;;;42.60;;
5125;SDS011;63008;53.112;8.896;2023-02-23T06:33:08;113.20;;;43.07;;
5125;SDS011;63008;53.112;8.896;2023-02-23T06:35:09;109.30;;;42.03;;
5125;SDS011;63008;53.112;8.896;2023-02-23T06:37:10;111.17;;;43.07;;
5125;SDS011;63008;53.112;8.896;2023-02-23T06:39:11;109.40;;;43.20;;
5125;SDS011;63008;53.112;8.896;2023-02-23T06:41:12;95.43;;;40.23;;
5125;SDS011;63008;53.112;8.896;2023-02-23T06:43:13;106.87;;;39.83;;
5125;SDS011;63008;53.112;8.896;2023-02-23T06:45:14;112.33;;;40.10;;
5125;SDS011;63008;53.112;8.896;2023-02-23T06:47:16;103.17;;;41.40;;
5125;SDS011;63008;53.112;8.896;2023-02-23T06:49:17;102.73;;;39.60;;
5125;SDS011;63008;53.112;8.896;2023-02-23T06:51:18;112.90;;;42.63;;
5125;SDS011;63008;53.112;8.896;2023-02-23T06:53:19;111.63;;;42.90;;
5125;SDS011;63008;53.112;8.896;2023-02-23T06:55:21;105.97;;;41.50;;
5125;SDS011;63008;53.112;8.896;2023-02-23T06:57:23;102.47;;;41.70;;
5125;SDS011;63008;53.112;8.896;2023-02-23T06:59:24;126.23;;;45.50;;
5125;SDS011;63008;53.112;8.896;2023-02-23T07:01:28;110.73;;;41.73;;
5125;SDS011;63008;53.112;8.896;2023-02-23T07:03:29;121.83;;;44.60;;
5125;SDS011;63008;53.112;8.896;2023-02-23T07:05:30;111.73;;;44.63;;
5125;SDS011;63008;53.112;8.896;2023-02-23T07:07:31;122.33;;;43.83;;
5125;SDS011;63008;53.112;8.896;2023-02-23T07:09:32;121.57;;;43.83;;
5125;SDS011;63008;53.112;8.896;2023-02-23T07:11:33;119.90;;;45.73;;
5125;SDS011;63008;53.112;8.896;2023-02-23T07:13:34;127.60;;;44.47;;
5125;SDS011;63008;53.112;8.896;2023-02-23T07:15:35;129.27;;;48.07;;
5125;SDS011;63008;53.112;8.896;2023-02-23T07:17:36;126.47;;;49.40;;
5125;SDS011;63008;53.112;8.896;2023-02-23T07:19:37;137.83;;;50.33;;
5125;SDS011;63008;53.112;8.896;2023-02-23T07:21:38;113.57;;;45.60;;
5125;SDS011;63008;53.112;8.896;2023-02-23T07:23:39;123.83;;;45.53;;
5125;SDS011;63008;53.112;8.896;2023-02-23T07:25:40;122.03;;;48.77;;
5125;SDS011;63008;53.112;8.896;2023-02-23T07:27:41;128.43;;;45.53;;
5125;SDS011;63008;53.112;8.896;2023-02-23T07:29:42;122.03;;;46.53;;
5125;SDS011;63008;53.112;8.896;2023-02-23T07:31:43;121.17;;;46.50;;
5125;SDS011;63008;53.112;8.896;2023-02-23T07:33:44;132.57;;;46.90;;
5125;SDS011;63008;53.112;8.896;2023-02-23T07:35:45;125.20;;;46.70;;
5125;SDS011;63008;53.112;8.896;2023-02-23T07:37:46;130.53;;;48.37;;
5125;SDS011;63008;53.112;8.896;2023-02-23T07:39:47;126.67;;;50.40;;
5125;SDS011;63008;53.112;8.896;2023-02-23T07:41:48;134.93;;;47.70;;
5125;SDS011;63008;53.112;8.896;2023-02-23T07:43:49;133.50;;;47.77;;
5125;SDS011;63008;53.112;8.896;2023-02-23T07:45:50;135.43;;;46.80;;
5125;SDS011;63008;53.112;8.896;2023-02-23T07:47:51;136.67;;;48.83;;
5125;SDS011;63008;53.112;8.896;2023-02-23T07:49:55;135.13;;;46.40;;
5125;SDS011;63008;53.112;8.896;2023-02-23T07:51:57;140.60;;;47.63;;
5125;SDS011;63008;53.112;8.896;2023-02-23T07:54:02;126.33;;;48.03;;
5125;SDS011;63008;53.112;8.896;2023-02-23T07:56:04;141.83;;;48.20;;
5125;SDS011;63008;53.112;8.896;2023-02-23T07:58:05;153.27;;;51.47;;
5125;SDS011;63008;53.112;8.896;2023-02-23T08:00:07;135.90;;;49.50;;
5125;SDS011;63008;53.112;8.896;2023-02-23T08:02:09;150.90;;;49.90;;
5125;SDS011;63008;53.112;8.896;2023-02-23T08:04:12;163.70;;;53.73;;
5125;SDS011;63008;53.112;8.896;2023-02-23T08:06:14;149.37;;;50.13;;
5125;SDS011;63008;53.112;8.896;2023-02-23T08:08:16;152.27;;;51.77;;
5125;SDS011;63008;53.112;8.896;2023-02-23T08:10:17;153.53;;;50.90;;
5125;SDS011;63008;53.112;8.896;2023-02-23T08:12:18;139.63;;;50.13;;
5125;SDS011;63008;53.112;8.896;2023-02-23T08:14:19;156.83;;;49.57;;
5125;SDS011;63008;53.112;8.896;2023-02-23T08:16:23;140.93;;;51.10;;
5125;SDS011;63008;53.112;8.896;2023-02-23T08:18:24;144.17;;;51.47;;
5125;SDS011;63008;53.112;8.896;2023-02-23T08:20:25;158.73;;;52.73;;
5125;SDS011;63008;53.112;8.896;2023-02-23T08:22:27;161.00;;;51.23;;
5125;SDS011;63008;53.112;8.896;2023-02-23T08:24:28;139.50;;;48.80;;
5125;SDS011;63008;53.112;8.896;2023-02-23T08:26:30;130.73;;;50.00;;
5125;SDS011;63008;53.112;8.896;2023-02-23T08:28:31;150.17;;;49.50;;
5125;SDS011;63008;53.112;8.896;2023-02-23T08:30:32;140.80;;;48.47;;
5125;SDS011;63008;53.112;8.896;2023-02-23T08:32:33;136.00;;;47.07;;
5125;SDS011;63008;53.112;8.896;2023-02-23T08:34:38;146.00;;;51.27;;
5125;SDS011;63008;53.112;8.896;2023-02-23T08:36:41;141.33;;;45.17;;
5125;SDS011;63008;53.112;8.896;2023-02-23T08:38:42;147.10;;;50.70;;
5125;SDS011;63008;53.112;8.896;2023-02-23T08:40:43;147.00;;;48.87;;
5125;SDS011;63008;53.112;8.896;2023-02-23T08:42:44;153.37;;;51.27;;
5125;SDS011;63008;53.112;8.896;2023-02-23T08:44:45;140.50;;;49.60;;
5125;SDS011;63008;53.112;8.896;2023-02-23T08:46:46;145.53;;;49.40;;
5125;SDS011;63008;53.112;8.896;2023-02-23T08:48:49;147.87;;;50.87;;
5125;SDS011;63008;53.112;8.896;2023-02-23T08:50:54;169.50;;;55.23;;
5125;SDS011;63008;53.112;8.896;2023-02-23T08:52:55;169.40;;;53.63;;
5125;SDS011;63008;53.112;8.896;2023-02-23T08:54:57;200.80;;;55.20;;
5125;SDS011;63008;53.112;8.896;2023-02-23T08:56:58;168.43;;;54.00;;
5125;SDS011;63008;53.112;8.896;2023-02-23T08:58:59;184.17;;;53.33;;
5125;SDS011;63008;53.112;8.896;2023-02-23T09:01:00;200.30;;;60.60;;
5125;SDS011;63008;53.112;8.896;2023-02-23T09:03:01;199.10;;;53.87;;
5125;SDS011;63008;53.112;8.896;2023-02-23T09:05:04;194.87;;;54.27;;
5125;SDS011;63008;53.112;8.896;2023-02-23T09:07:06;192.87;;;55.47;;
5125;SDS011;63008;53.112;8.896;2023-02-23T09:09:09;207.07;;;56.07;;
5125;SDS011;63008;53.112;8.896;2023-02-23T09:11:10;212.70;;;57.97;;
5125;SDS011;63008;53.112;8.896;2023-02-23T09:13:11;180.57;;;52.70;;
5125;SDS011;63008;53.112;8.896;2023-02-23T09:15:13;220.47;;;56.20;;
5125;SDS011;63008;53.112;8.896;2023-02-23T09:17:14;193.87;;;55.03;;
5125;SDS011;63008;53.112;8.896;2023-02-23T09:19:14;190.73;;;52.03;;
5125;SDS011;63008;53.112;8.896;2023-02-23T09:21:17;209.97;;;54.93;;
5125;SDS011;63008;53.112;8.896;2023-02-23T09:23:21;201.83;;;53.37;;
5125;SDS011;63008;53.112;8.896;2023-02-23T09:25:23;197.30;;;55.10;;
5125;SDS011;63008;53.112;8.896;2023-02-23T09:27:25;192.43;;;51.10;;
5125;SDS011;63008;53.112;8.896;2023-02-23T09:29:26;198.37;;;55.53;;
5125;SDS011;63008;53.112;8.896;2023-02-23T09:31:27;189.07;;;52.30;;
5125;SDS011;63008;53.112;8.896;2023-02-23T09:33:28;181.97;;;52.90;;
5125;SDS011;63008;53.112;8.896;2023-02-23T09:35:29;194.50;;;53.70;;
5125;SDS011;63008;53.112;8.896;2023-02-23T09:37:30;193.00;;;52.40;;
5125;SDS011;63008;53.112;8.896;2023-02-23T09:39:31;184.23;;;50.80;;
5125;SDS011;63008;53.112;8.896;2023-02-23T09:46:34;183.47;;;52.90;;
5125;SDS011;63008;53.112;8.896;2023-02-23T09:48:55;171.00;;;50.50;;
5125;SDS011;63008;53.112;8.896;2023-02-23T09:51:00;160.67;;;48.27;;
5125;SDS011;63008;53.112;8.896;2023-02-23T09:53:06;173.97;;;50.03;;
5125;SDS011;63008;53.112;8.896;2023-02-23T09:55:20;156.90;;;49.97;;
5125;SDS011;63008;53.112;8.896;2023-02-23T09:57:28;179.30;;;52.87;;
5125;SDS011;63008;53.112;8.896;2023-02-23T09:59:38;183.63;;;54.43;;
5125;SDS011;63008;53.112;8.896;2023-02-23T10:06:18;130.37;;;47.67;;
5125;SDS011;63008;53.112;8.896;2023-02-23T10:08:29;155.60;;;47.40;;
5125;SDS011;63008;53.112;8.896;2023-02-23T10:10:49;150.03;;;47.33;;
5125;SDS011;63008;53.112;8.896;2023-02-23T10:19:36;124.60;;;46.50;;
5125;SDS011;63008;53.112;8.896;2023-02-23T10:21:50;130.47;;;44.30;;
5125;SDS011;63008;53.112;8.896;2023-02-23T10:23:57;131.03;;;45.67;;
5125;SDS011;63008;53.112;8.896;2023-02-23T10:26:01;124.90;;;44.10;;
5125;SDS011;63008;53.112;8.896;2023-02-23T10:28:13;115.57;;;42.63;;
5125;SDS011;63008;53.112;8.896;2023-02-23T10:30:30;121.53;;;42.43;;
5125;SDS011;63008;53.112;8.896;2023-02-23T10:34:40;107.37;;;40.50;;
5125;SDS011;63008;53.112;8.896;2023-02-23T10:39:13;119.70;;;42.70;;
5125;SDS011;63008;53.112;8.896;2023-02-23T10:41:14;127.37;;;42.10;;
5125;SDS011;63008;53.112;8.896;2023-02-23T10:43:15;112.67;;;42.57;;
5125;SDS011;63008;53.112;8.896;2023-02-23T10:45:26;127.77;;;44.07;;
5125;SDS011;63008;53.112;8.896;2023-02-23T10:47:29;119.63;;;43.37;;
5125;SDS011;63008;53.112;8.896;2023-02-23T10:49:38;107.90;;;42.90;;
5125;SDS011;63008;53.112;8.896;2023-02-23T10:51:43;116.27;;;42.40;;
5125;SDS011;63008;53.112;8.896;2023-02-23T10:53:44;135.30;;;46.70;;
5125;SDS011;63008;53.112;8.896;2023-02-23T10:55:46;104.30;;;40.57;;
5125;SDS011;63008;53.112;8.896;2023-02-23T10:58:00;114.27;;;41.23;;
5125;SDS011;63008;53.112;8.896;2023-02-23T11:02:23;107.87;;;39.57;;
5125;SDS011;63008;53.112;8.896;2023-02-23T11:04:26;123.10;;;42.37;;
5125;SDS011;63008;53.112;8.896;2023-02-23T11:08:35;129.73;;;42.73;;
5125;SDS011;63008;53.112;8.896;2023-02-23T11:10:37;131.53;;;41.20;;
5125;SDS011;63008;53.112;8.896;2023-02-23T11:12:38;122.30;;;41.00;;
5125;SDS011;63008;53.112;8.896;2023-02-23T11:14:42;123.43;;;40.33;;
5125;SDS011;63008;53.112;8.896;2023-02-23T11:16:43;119.57;;;40.70;;
5125;SDS011;63008;53.112;8.896;2023-02-23T11:18:49;111.07;;;37.30;;
5125;SDS011;63008;53.112;8.896;2023-02-23T11:20:50;117.70;;;38.10;;
5125;SDS011;63008;53.112;8.896;2023-02-23T11:22:52;121.27;;;39.17;;
5125;SDS011;63008;53.112;8.896;2023-02-23T11:24:53;126.37;;;38.20;;
5125;SDS011;63008;53.112;8.896;2023-02-23T11:26:55;125.70;;;40.57;;
5125;SDS011;63008;53.112;8.896;2023-02-23T11:29:02;132.07;;;41.47;;
5125;SDS011;63008;53.112;8.896;2023-02-23T11:31:20;126.63;;;38.03;;
5125;SDS011;63008;53.112;8.896;2023-02-23T11:33:29;112.30;;;38.10;;
5125;SDS011;63008;53.112;8.896;2023-02-23T11:35:36;129.23;;;37.60;;
5125;SDS011;63008;53.112;8.896;2023-02-23T11:37:37;136.20;;;41.40;;
5125;SDS011;63008;53.112;8.896;2023-02-23T11:39:40;132.63;;;39.23;;
5125;SDS011;63008;53.112;8.896;2023-02-23T11:42:14;144.00;;;41.83;;
5125;SDS011;63008;53.112;8.896;2023-02-23T11:44:19;154.77;;;43.20;;
5125;SDS011;63008;53.112;8.896;2023-02-23T11:46:22;134.17;;;41.10;;
5125;SDS011;63008;53.112;8.896;2023-02-23T11:48:29;140.30;;;41.23;;
5125;SDS011;63008;53.112;8.896;2023-02-23T11:50:34;129.47;;;42.40;;
5125;SDS011;63008;53.112;8.896;2023-02-23T11:52:36;158.83;;;42.37;;
5125;SDS011;63008;53.112;8.896;2023-02-23T11:54:37;149.90;;;44.67;;
5125;SDS011;63008;53.112;8.896;2023-02-23T11:56:38;162.50;;;44.23;;
5125;SDS011;63008;53.112;8.896;2023-02-23T11:58:45;168.17;;;44.43;;
5125;SDS011;63008;53.112;8.896;2023-02-23T12:00:59;150.87;;;44.43;;
5125;SDS011;63008;53.112;8.896;2023-02-23T12:03:01;180.67;;;46.97;;
5125;SDS011;63008;53.112;8.896;2023-02-23T12:05:05;175.80;;;47.13;;
5125;SDS011;63008;53.112;8.896;2023-02-23T12:09:44;169.13;;;42.83;;
5125;SDS011;63008;53.112;8.896;2023-02-23T12:11:51;158.03;;;43.33;;
5125;SDS011;63008;53.112;8.896;2023-02-23T12:14:20;135.00;;;40.47;;
5125;SDS011;63008;53.112;8.896;2023-02-23T12:16:34;157.37;;;42.27;;
5125;SDS011;63008;53.112;8.896;2023-02-23T12:19:01;161.20;;;43.07;;
5125;SDS011;63008;53.112;8.896;2023-02-23T12:23:32;165.20;;;45.97;;
5125;SDS011;63008;53.112;8.896;2023-02-23T12:27:51;190.37;;;45.60;;
5125;SDS011;63008;53.112;8.896;2023-02-23T12:30:03;186.27;;;47.00;;
5125;SDS011;63008;53.112;8.896;2023-02-23T12:32:14;213.50;;;46.77;;
5125;SDS011;63008;53.112;8.896;2023-02-23T12:34:21;204.60;;;45.50;;
5125;SDS011;63008;53.112;8.896;2023-02-23T12:36:42;244.53;;;55.07;;
5125;SDS011;63008;53.112;8.896;2023-02-23T12:38:59;262.60;;;56.27;;
5125;SDS011;63008;53.112;8.896;2023-02-23T12:41:11;257.03;;;56.23;;
5125;SDS011;63008;53.112;8.896;2023-02-23T12:43:18;268.80;;;54.30;;
5125;SDS011;63008;53.112;8.896;2023-02-23T12:45:27;262.33;;;55.43;;
5125;SDS011;63008;53.112;8.896;2023-02-23T12:47:40;280.40;;;59.13;;
5125;SDS011;63008;53.112;8.896;2023-02-23T12:49:45;273.40;;;59.10;;
5125;SDS011;63008;53.112;8.896;2023-02-23T12:51:54;255.97;;;56.30;;
5125;SDS011;63008;53.112;8.896;2023-02-23T12:54:02;255.67;;;53.00;;
5125;SDS011;63008;53.112;8.896;2023-02-23T12:56:13;209.80;;;50.10;;
5125;SDS011;63008;53.112;8.896;2023-02-23T13:00:53;212.60;;;51.53;;
5125;SDS011;63008;53.112;8.896;2023-02-23T13:10:35;191.97;;;47.07;;
5125;SDS011;63008;53.112;8.896;2023-02-23T13:12:55;165.17;;;44.83;;
5125;SDS011;63008;53.112;8.896;2023-02-23T13:15:06;167.27;;;45.07;;
5125;SDS011;63008;53.112;8.896;2023-02-23T13:20:00;133.50;;;40.00;;
5125;SDS011;63008;53.112;8.896;2023-02-23T13:24:34;125.07;;;38.73;;
5125;SDS011;63008;53.112;8.896;2023-02-23T13:26:49;119.07;;;36.50;;
5125;SDS011;63008;53.112;8.896;2023-02-23T13:29:23;115.57;;;35.13;;
5125;SDS011;63008;53.112;8.896;2023-02-23T13:31:26;114.10;;;35.07;;